createdAt,value
2019-04-13T00:00:03.866Z,89.42
2019-04-13T00:02:43.883Z,89.64
2019-04-13T00:05:37.887Z,90.07
2019-04-13T00:08:08.570Z,89.89
2019-04-13T00:10:46.958Z,90.10
2019-04-13T00:13:15.904Z,89.83
2019-04-13T00:15:44.793Z,90.05
2019-04-13T00:18:13.693Z,90.22
2019-04-13T00:20:42.312Z,90.46
2019-04-13T00:23:11.337Z,90.79
2019-04-13T00:25:40.241Z,90.56
2019-04-13T00:28:09.151Z,90.87
2019-04-13T00:30:38.598Z,90.89
2019-04-13T00:33:07.548Z,90.89
2019-04-13T00:35:36.203Z,90.88
2019-04-13T00:38:04.907Z,90.98
2019-04-13T00:40:33.916Z,91.22
2019-04-13T00:43:02.804Z,91.10
2019-04-13T00:45:31.391Z,90.46
2019-04-13T00:48:00.282Z,90.11
2019-04-13T00:50:29.577Z,90.08
2019-04-13T00:52:58.802Z,89.26
2019-04-13T00:55:27.654Z,89.22
2019-04-13T00:57:56.563Z,89.08
2019-04-13T01:00:25.553Z,88.90
2019-04-13T01:02:54.443Z,88.55
2019-04-13T01:05:23.435Z,88.16
2019-04-13T01:07:52.050Z,88.26
2019-04-13T01:10:21.017Z,87.73
2019-04-13T01:12:50.318Z,87.76
2019-04-13T01:15:19.325Z,87.91
2019-04-13T01:17:48.615Z,88.23
2019-04-13T01:20:17.608Z,88.25
2019-04-13T01:22:46.804Z,88.68
2019-04-13T01:25:15.696Z,88.96
2019-04-13T01:27:44.997Z,89.66
2019-04-13T01:30:14.206Z,89.87
2019-04-13T01:32:43.748Z,90.09
2019-04-13T01:35:12.452Z,90.40
2019-04-13T01:37:41.079Z,90.33
2019-04-13T01:40:09.831Z,90.67
2019-04-13T01:42:38.734Z,90.91
2019-04-13T01:45:07.751Z,91.16
2019-04-13T01:47:36.373Z,91.44
2019-04-13T01:50:05.260Z,91.64
2019-04-13T01:52:33.881Z,91.54
2019-04-13T01:55:03.110Z,91.73
2019-04-13T01:57:32.413Z,91.56
2019-04-13T02:00:01.101Z,91.49
2019-04-13T02:02:52.041Z,91.35
2019-04-13T02:05:46.293Z,91.46
2019-04-13T02:08:37.122Z,91.89
2019-04-13T02:11:11.733Z,92.00
2019-04-13T02:13:41.029Z,92.17
2019-04-13T02:16:09.994Z,92.15
2019-04-13T02:18:38.619Z,92.11
2019-04-13T02:21:07.285Z,92.15
2019-04-13T02:23:36.179Z,92.12
2019-04-13T02:26:05.176Z,91.99
2019-04-13T02:28:34.064Z,91.91
2019-04-13T02:31:02.968Z,92.32
2019-04-13T02:33:32.257Z,92.66
2019-04-13T02:36:00.878Z,92.76
2019-04-13T02:38:29.828Z,92.91
2019-04-13T02:40:58.471Z,92.98
2019-04-13T02:43:27.420Z,93.31
2019-04-13T02:45:56.306Z,93.41
2019-04-13T02:48:25.305Z,93.66
2019-04-13T02:50:54.907Z,93.62
2019-04-13T02:53:23.553Z,93.41
2019-04-13T02:55:52.488Z,93.11
2019-04-13T02:58:21.480Z,93.09
2019-04-13T03:00:50.108Z,93.25
2019-04-13T03:03:19.361Z,93.06
2019-04-13T03:05:48.355Z,92.95
2019-04-13T03:08:17.347Z,92.69
2019-04-13T03:10:46.063Z,92.29
2019-04-13T03:13:16.972Z,92.30
2019-04-13T03:16:04.402Z,92.32
2019-04-13T03:18:39.336Z,91.95
2019-04-13T03:21:07.952Z,90.78
2019-04-13T03:23:36.567Z,90.07
2019-04-13T03:26:05.605Z,89.92
2019-04-13T03:28:34.988Z,89.87
2019-04-13T03:31:03.912Z,89.38
2019-04-13T03:33:32.895Z,89.11
2019-04-13T03:36:01.531Z,88.99
2019-04-13T03:38:30.769Z,88.79
2019-04-13T03:41:00.079Z,88.67
2019-04-13T03:43:28.961Z,88.72
2019-04-13T03:45:57.592Z,88.94
2019-04-13T03:48:26.236Z,89.31
2019-04-13T03:50:55.125Z,89.08
2019-04-13T03:53:24.323Z,89.14
2019-04-13T03:55:52.960Z,89.04
2019-04-13T03:58:22.210Z,88.66
2019-04-13T04:00:51.041Z,88.80
2019-04-13T04:03:20.172Z,88.66
2019-04-13T04:05:49.085Z,88.24
2019-04-13T04:08:18.284Z,87.92
2019-04-13T04:10:47.179Z,88.25
2019-04-13T04:13:16.477Z,88.24
2019-04-13T04:15:45.675Z,88.07
2019-04-13T04:18:14.569Z,87.85
2019-04-13T04:20:43.772Z,87.78
2019-04-13T04:23:12.764Z,87.89
2019-04-13T04:25:41.650Z,87.80
2019-04-13T04:28:10.644Z,87.58
2019-04-13T04:30:39.947Z,87.65
2019-04-13T04:33:08.559Z,87.38
2019-04-13T04:35:37.217Z,87.41
2019-04-13T04:38:06.210Z,86.67
2019-04-13T04:40:35.423Z,85.76
2019-04-13T04:43:04.814Z,86.43
2019-04-13T04:45:33.694Z,86.39
2019-04-13T04:48:02.907Z,85.66
2019-04-13T04:50:32.108Z,85.46
2019-04-13T04:53:01.097Z,85.74
2019-04-13T04:55:29.728Z,85.80
2019-04-13T04:57:58.671Z,85.86
2019-04-13T05:00:27.574Z,85.97
2019-04-13T05:02:56.732Z,85.19
2019-04-13T05:05:26.282Z,84.79
2019-04-13T05:07:54.886Z,84.48
2019-04-13T05:10:23.767Z,84.75
2019-04-13T05:12:52.953Z,84.83
2019-04-13T05:15:22.400Z,84.86
2019-04-13T05:17:51.355Z,85.13
2019-04-13T05:20:19.950Z,84.76
2019-04-13T05:22:48.543Z,83.51
2019-04-13T05:25:17.555Z,83.60
2019-04-13T05:27:46.818Z,83.26
2019-04-13T05:30:15.807Z,82.97
2019-04-13T05:32:44.458Z,83.27
2019-04-13T05:35:13.374Z,82.80
2019-04-13T05:37:42.275Z,83.04
2019-04-13T05:40:11.477Z,83.17
2019-04-13T05:42:40.673Z,83.23
2019-04-13T05:45:09.498Z,83.35
2019-04-13T05:47:38.769Z,83.13
2019-04-13T05:50:08.168Z,83.56
2019-04-13T05:52:37.180Z,83.21
2019-04-13T05:55:06.732Z,83.51
2019-04-13T05:57:35.700Z,83.56
2019-04-13T06:00:05.134Z,83.88
2019-04-13T06:02:35.700Z,84.11
2019-04-13T06:05:07.573Z,84.24
2019-04-13T06:07:37.170Z,83.68
2019-04-13T06:10:07.460Z,83.75
2019-04-13T06:12:36.797Z,83.46
2019-04-13T06:15:07.693Z,83.79
2019-04-13T06:17:37.135Z,84.31
2019-04-13T06:20:07.578Z,84.36
2019-04-13T06:22:36.622Z,84.41
2019-04-13T06:25:09.440Z,84.34
2019-04-13T06:27:36.492Z,84.34
2019-04-13T06:30:24.859Z,83.87
2019-04-13T06:32:58.333Z,83.56
2019-04-13T06:35:30.440Z,83.65
2019-04-13T06:37:59.360Z,83.21
2019-04-13T06:40:27.995Z,82.76
2019-04-13T06:42:56.984Z,82.47
2019-04-13T06:45:25.969Z,82.13
2019-04-13T06:47:54.947Z,80.64
2019-04-13T06:50:23.951Z,79.20
2019-04-13T06:52:52.845Z,79.44
2019-04-13T06:55:22.041Z,79.20
2019-04-13T06:57:51.047Z,79.41
2019-04-13T07:00:19.807Z,79.91
2019-04-13T07:02:48.807Z,79.42
2019-04-13T07:05:17.441Z,79.71
2019-04-13T07:08:00.966Z,77.69
2019-04-13T07:10:58.096Z,77.66
2019-04-13T07:13:33.348Z,76.51
2019-04-13T07:16:14.002Z,76.54
2019-04-13T07:18:43.708Z,75.87
2019-04-13T07:21:13.319Z,74.67
2019-04-13T07:23:42.658Z,75.06
2019-04-13T07:26:11.527Z,74.37
2019-04-13T07:28:40.402Z,74.88
2019-04-13T07:31:09.397Z,74.71
2019-04-13T07:33:38.388Z,74.55
2019-04-13T07:36:10.627Z,74.54
2019-04-13T07:38:38.237Z,73.37
2019-04-13T07:41:07.213Z,72.89
2019-04-13T07:43:35.839Z,73.11
2019-04-13T07:46:29.517Z,70.87
2019-04-13T07:49:13.998Z,72.15
2019-04-13T07:52:06.992Z,71.73
2019-04-13T07:54:34.935Z,71.18
2019-04-13T07:57:05.406Z,70.92
2019-04-13T07:59:33.943Z,72.26
2019-04-13T08:02:02.845Z,72.26
2019-04-13T08:04:31.712Z,72.12
2019-04-13T08:07:00.887Z,72.94
2019-04-13T08:09:29.779Z,72.71
2019-04-13T08:11:58.631Z,72.71
2019-04-13T08:14:29.912Z,72.76
2019-04-13T08:17:00.109Z,73.74
2019-04-13T08:19:32.575Z,71.93
2019-04-13T08:22:01.957Z,72.66
2019-04-13T08:24:31.869Z,74.43
2019-04-13T08:27:00.508Z,74.93
2019-04-13T08:29:29.144Z,73.91
2019-04-13T08:32:01.722Z,74.06
2019-04-13T08:34:28.527Z,73.39
2019-04-13T08:36:58.091Z,73.74
2019-04-13T08:39:27.104Z,73.74
2019-04-13T08:41:55.892Z,74.71
2019-04-13T08:44:24.763Z,75.29
2019-04-13T08:46:54.166Z,75.29
2019-04-13T08:49:22.771Z,76.11
2019-04-13T08:51:51.658Z,75.94
2019-04-13T08:54:20.284Z,77.32
2019-04-13T08:56:49.158Z,77.14
2019-04-13T08:59:18.374Z,77.14
2019-04-13T09:01:49.021Z,77.43
2019-04-13T09:04:18.375Z,74.53
2019-04-13T09:06:47.273Z,75.46
2019-04-13T09:09:16.282Z,75.46
2019-04-13T09:11:45.642Z,76.54
2019-04-13T09:14:15.566Z,75.50
2019-04-13T09:16:45.126Z,76.79
2019-04-13T09:19:29.444Z,76.79
2019-04-13T09:22:01.684Z,75.89
2019-04-13T09:24:30.317Z,75.31
2019-04-13T09:26:59.238Z,73.69
2019-04-13T09:29:28.074Z,73.68
2019-04-13T09:32:00.299Z,70.96
2019-04-13T09:34:31.621Z,71.71
2019-04-13T09:37:00.382Z,71.25
2019-04-13T09:39:29.667Z,72.42
2019-04-13T09:41:58.555Z,71.32
2019-04-13T09:44:31.149Z,71.89
2019-04-13T09:47:08.783Z,74.65
2019-04-13T09:49:37.680Z,74.65
2019-04-13T09:52:06.594Z,79.99
2019-04-13T09:54:35.662Z,79.99
2019-04-13T09:57:04.527Z,81.79
2019-04-13T09:59:33.426Z,82.75
2019-04-13T10:02:02.296Z,85.03
2019-04-13T10:04:31.162Z,85.03
2019-04-13T10:07:00.109Z,85.59
2019-04-13T10:09:29.875Z,85.52
2019-04-13T10:12:20.611Z,86.60
2019-04-13T10:15:20.685Z,87.01
2019-04-13T10:17:54.512Z,87.29
2019-04-13T10:20:24.000Z,87.40
2019-04-13T10:22:53.565Z,87.71
2019-04-13T10:25:23.943Z,87.14
2019-04-13T10:27:53.301Z,87.06
2019-04-13T10:30:22.220Z,87.33
2019-04-13T10:32:51.048Z,87.99
2019-04-13T10:35:19.692Z,88.53
2019-04-13T10:37:48.657Z,88.78
2019-04-13T10:40:17.279Z,88.47
2019-04-13T10:42:46.176Z,88.67
2019-04-13T10:45:33.148Z,88.65
2019-04-13T10:48:19.516Z,88.58
2019-04-13T10:50:55.282Z,88.59
2019-04-13T10:53:23.986Z,88.51
2019-04-13T10:55:52.633Z,87.98
2019-04-13T10:58:21.860Z,87.77
2019-04-13T11:00:50.731Z,87.63
2019-04-13T11:03:19.727Z,87.72
2019-04-13T11:05:48.605Z,87.79
2019-04-13T11:08:20.069Z,87.50
2019-04-13T11:10:48.055Z,87.49
2019-04-13T11:13:16.769Z,87.00
2019-04-13T11:15:45.660Z,87.06
2019-04-13T11:18:14.388Z,86.38
2019-04-13T11:20:45.294Z,86.95
2019-04-13T11:23:14.842Z,85.97
2019-04-13T11:25:43.824Z,85.16
2019-04-13T11:28:12.800Z,82.97
2019-04-13T11:30:41.661Z,82.97
2019-04-13T11:33:10.806Z,80.72
2019-04-13T11:35:39.650Z,79.47
2019-04-13T11:38:08.547Z,79.47
2019-04-13T11:40:37.315Z,76.73
2019-04-13T11:43:28.035Z,74.06
2019-04-13T11:46:14.427Z,75.11
2019-04-13T11:49:05.514Z,73.95
2019-04-13T11:51:34.792Z,72.85
2019-04-13T11:54:04.613Z,72.03
2019-04-13T11:56:36.643Z,72.01
2019-04-13T11:59:03.987Z,71.71
2019-04-13T12:01:49.728Z,71.71
2019-04-13T12:04:55.535Z,68.40
2019-04-13T12:07:40.475Z,68.40
2019-04-13T12:10:28.804Z,67.21
2019-04-13T12:13:35.156Z,67.21
2019-04-13T12:16:32.581Z,67.15
2019-04-13T12:19:06.744Z,67.68
2019-04-13T12:21:53.388Z,65.86
2019-04-13T12:24:25.289Z,64.03
2019-04-13T12:26:54.333Z,64.03
2019-04-13T12:29:22.959Z,63.12
2019-04-13T12:31:51.915Z,62.00
2019-04-13T12:34:23.640Z,61.09
2019-04-13T12:36:51.344Z,59.73
2019-04-13T12:39:20.536Z,58.93
2019-04-13T12:41:53.886Z,59.25
2019-04-13T12:44:36.299Z,59.47
2019-04-13T12:46:53.964Z,59.47
2019-04-13T12:49:23.157Z,58.89
2019-04-13T12:51:52.064Z,58.34
2019-04-13T12:54:20.943Z,58.44
2019-04-13T12:56:50.207Z,58.12
2019-04-13T12:59:19.166Z,58.33
2019-04-13T13:02:05.673Z,57.80
2019-04-13T13:04:40.767Z,57.15
2019-04-13T13:07:09.493Z,56.37
2019-04-13T13:09:40.149Z,56.77
2019-04-13T13:12:08.994Z,56.60
2019-04-13T13:14:37.828Z,57.02
2019-04-13T13:17:06.779Z,57.55
2019-04-13T13:19:36.071Z,57.49
2019-04-13T13:22:04.895Z,58.41
2019-04-13T13:24:33.757Z,57.44
2019-04-13T13:27:02.863Z,57.29
2019-04-13T13:29:31.532Z,57.47
2019-04-13T13:32:00.345Z,56.68
2019-04-13T13:34:29.383Z,56.14
2019-04-13T13:36:58.010Z,55.92
2019-04-13T13:39:27.269Z,56.58
2019-04-13T13:41:55.887Z,56.38
2019-04-13T13:44:24.986Z,56.10
2019-04-13T13:46:53.936Z,56.91
2019-04-13T13:49:22.559Z,58.02
2019-04-13T13:51:56.321Z,57.73
2019-04-13T13:54:22.767Z,58.20
2019-04-13T13:56:51.908Z,57.81
2019-04-13T13:59:20.775Z,58.21
2019-04-13T14:01:55.507Z,57.86
2019-04-13T14:04:24.667Z,57.91
2019-04-13T14:06:53.358Z,57.91
2019-04-13T14:09:22.002Z,58.29
2019-04-13T14:11:51.306Z,58.05
2019-04-13T14:14:20.638Z,57.75
2019-04-13T14:16:49.511Z,58.25
2019-04-13T14:19:18.804Z,58.39
2019-04-13T14:21:47.509Z,58.39
2019-04-13T14:24:17.460Z,58.15
2019-04-13T14:26:46.633Z,59.28
2019-04-13T14:29:15.523Z,59.30
2019-04-13T14:31:44.379Z,58.86
2019-04-13T14:34:12.984Z,59.54
2019-04-13T14:36:41.844Z,59.82
2019-04-13T14:39:10.732Z,59.83
2019-04-13T14:41:41.788Z,60.04
2019-04-13T14:44:10.256Z,59.94
2019-04-13T14:46:39.213Z,58.98
2019-04-13T14:49:07.916Z,58.98
2019-04-13T14:51:36.892Z,58.87
2019-04-13T14:54:05.534Z,59.16
2019-04-13T14:56:35.687Z,59.91
2019-04-13T14:59:04.974Z,59.81
2019-04-13T15:01:33.826Z,60.15
2019-04-13T15:04:02.726Z,60.23
2019-04-13T15:06:31.618Z,59.35
2019-04-13T15:09:00.721Z,59.88
2019-04-13T15:11:29.631Z,59.55
2019-04-13T15:13:59.991Z,58.95
2019-04-13T15:16:29.488Z,60.00
2019-04-13T15:19:25.081Z,59.63
2019-04-13T15:21:41.779Z,59.68
2019-04-13T15:24:14.373Z,59.97
2019-04-13T15:26:43.879Z,60.79
2019-04-13T15:29:16.371Z,61.42
2019-04-13T15:31:43.045Z,60.71
2019-04-13T15:34:12.004Z,62.09
2019-04-13T15:36:42.163Z,62.09
2019-04-13T15:39:18.754Z,62.10
2019-04-13T15:41:59.917Z,62.66
2019-04-13T15:44:19.803Z,63.28
2019-04-13T15:46:48.894Z,62.75
2019-04-13T15:49:17.590Z,63.79
2019-04-13T15:51:47.600Z,64.14
2019-04-13T15:54:16.982Z,64.49
2019-04-13T15:56:46.362Z,64.49
2019-04-13T15:59:18.191Z,65.43
2019-04-13T16:01:48.089Z,65.43
2019-04-13T16:04:16.852Z,66.10
2019-04-13T16:06:46.423Z,67.03
2019-04-13T16:09:34.712Z,67.03
2019-04-13T16:12:07.571Z,67.12
2019-04-13T16:14:37.368Z,67.01
2019-04-13T16:17:06.369Z,67.14
2019-04-13T16:19:35.248Z,67.41
2019-04-13T16:22:04.648Z,67.25
2019-04-13T16:24:33.715Z,67.25
2019-04-13T16:27:03.499Z,67.38
2019-04-13T16:29:51.427Z,67.38
2019-04-13T16:32:58.187Z,68.26
2019-04-13T16:35:33.548Z,68.26
2019-04-13T16:38:03.384Z,68.11
2019-04-13T16:40:33.509Z,68.02
2019-04-13T16:43:03.730Z,68.26
2019-04-13T16:45:39.982Z,68.26
2019-04-13T16:48:28.020Z,68.82
2019-04-13T16:51:16.211Z,68.64
2019-04-13T16:54:06.291Z,68.64
2019-04-13T16:56:39.525Z,68.43
2019-04-13T16:59:32.023Z,68.28
2019-04-13T17:02:20.256Z,68.35
2019-04-13T17:04:55.088Z,67.89
2019-04-13T17:07:24.068Z,67.89
2019-04-13T17:09:52.898Z,67.35
2019-04-13T17:12:30.749Z,67.79
2019-04-13T17:14:52.087Z,67.46
2019-04-13T17:17:22.026Z,66.56
2019-04-13T17:19:56.243Z,66.56
2019-04-13T17:22:43.988Z,67.57
2019-04-13T17:25:22.685Z,67.57
2019-04-13T17:28:14.110Z,67.04
2019-04-13T17:30:59.102Z,66.42
2019-04-13T17:33:46.730Z,67.64
2019-04-13T17:36:16.939Z,67.12
2019-04-13T17:38:46.131Z,67.36
2019-04-13T17:41:42.565Z,67.29
2019-04-13T17:44:20.215Z,66.83
2019-04-13T17:47:08.302Z,66.83
2019-04-13T17:49:55.159Z,66.17
2019-04-13T17:52:41.943Z,66.00
2019-04-13T17:55:18.991Z,65.27
2019-04-13T17:58:08.116Z,65.21
2019-04-13T18:01:08.320Z,65.20
2019-04-13T18:04:03.044Z,65.20
2019-04-13T18:07:03.136Z,65.12
2019-04-13T18:09:53.512Z,65.30
2019-04-13T18:12:50.015Z,65.30
2019-04-13T18:15:30.496Z,66.17
2019-04-13T18:18:03.947Z,66.99
2019-04-13T18:20:32.570Z,67.65
2019-04-13T18:23:02.518Z,67.76
2019-04-13T18:25:41.900Z,68.21
2019-04-13T18:28:02.210Z,68.98
2019-04-13T18:30:34.475Z,69.37
2019-04-13T18:33:01.152Z,70.18
2019-04-13T18:35:31.148Z,70.48
2019-04-13T18:38:01.338Z,71.29
2019-04-13T18:40:32.282Z,70.53
2019-04-13T18:43:08.319Z,70.64
2019-04-13T18:45:32.856Z,70.84
2019-04-13T18:48:02.154Z,70.05
2019-04-13T18:50:31.132Z,69.63
2019-04-13T18:53:00.521Z,70.70
2019-04-13T18:55:30.909Z,70.63
2019-04-13T18:57:59.870Z,69.90
2019-04-13T19:00:29.937Z,70.04
2019-04-13T19:02:58.987Z,69.78
2019-04-13T19:05:27.632Z,70.23
2019-04-13T19:07:56.756Z,70.18
2019-04-13T19:10:25.467Z,70.44
2019-04-13T19:13:03.667Z,70.12
2019-04-13T19:15:24.704Z,70.34
2019-04-13T19:17:53.672Z,69.75
2019-04-13T19:20:22.649Z,69.56
2019-04-13T19:22:51.528Z,69.97
2019-04-13T19:25:20.376Z,69.66
2019-04-13T19:27:49.520Z,70.08
2019-04-13T19:30:18.661Z,70.40
2019-04-13T19:32:47.614Z,70.14
2019-04-13T19:35:16.502Z,70.20
2019-04-13T19:37:45.437Z,70.27
2019-04-13T19:40:14.200Z,69.97
2019-04-13T19:42:43.206Z,69.98
2019-04-13T19:45:11.900Z,69.97
2019-04-13T19:47:41.021Z,69.62
2019-04-13T19:50:11.271Z,69.55
2019-04-13T19:52:45.832Z,69.79
2019-04-13T19:55:16.677Z,70.01
2019-04-13T19:57:45.539Z,69.58
2019-04-13T20:00:22.493Z,69.85
2019-04-13T20:02:51.949Z,70.26
2019-04-13T20:05:20.595Z,70.15
2019-04-13T20:07:49.467Z,69.93
2019-04-13T20:10:18.417Z,70.24
2019-04-13T20:12:47.017Z,70.15
2019-04-13T20:15:16.175Z,70.45
2019-04-13T20:17:45.339Z,70.32
2019-04-13T20:20:14.378Z,70.72
2019-04-13T20:22:43.495Z,70.34
2019-04-13T20:25:13.425Z,70.62
2019-04-13T20:27:43.479Z,70.29
2019-04-13T20:30:13.104Z,70.49
2019-04-13T20:32:42.809Z,70.13
2019-04-13T20:35:12.704Z,70.12
2019-04-13T20:37:42.591Z,70.70
2019-04-13T20:40:20.581Z,70.63
2019-04-13T20:42:50.467Z,70.57
2019-04-13T20:45:20.099Z,70.44
2019-04-13T20:47:50.088Z,70.75
2019-04-13T20:50:20.376Z,71.17
2019-04-13T20:52:49.642Z,71.28
2019-04-13T20:55:19.733Z,71.50
2019-04-13T20:57:50.113Z,72.04
2019-04-13T21:00:20.352Z,71.83
2019-04-13T21:02:50.490Z,71.99
2019-04-13T21:05:19.228Z,71.67
2019-04-13T21:07:48.820Z,71.99
2019-04-13T21:10:18.016Z,72.20
2019-04-13T21:12:46.949Z,72.21
2019-04-13T21:15:16.073Z,72.30
2019-04-13T21:17:46.321Z,72.79
2019-04-13T21:20:16.494Z,72.81
2019-04-13T21:22:46.412Z,73.17
2019-04-13T21:25:16.262Z,73.41
2019-04-13T21:27:44.988Z,73.26
2019-04-13T21:30:14.291Z,73.16
2019-04-13T21:32:44.352Z,73.24
2019-04-13T21:35:14.213Z,73.28
2019-04-13T21:37:42.999Z,73.48
2019-04-13T21:40:12.308Z,73.53
2019-04-13T21:42:40.975Z,73.58
2019-04-13T21:45:10.298Z,73.51
2019-04-13T21:47:40.410Z,73.42
2019-04-13T21:50:37.496Z,73.85
2019-04-13T21:53:26.669Z,73.60
2019-04-13T21:55:55.637Z,73.82
2019-04-13T21:58:25.129Z,73.59
2019-04-13T22:01:16.991Z,73.97
2019-04-13T22:03:46.948Z,73.90
2019-04-13T22:06:16.684Z,74.48
2019-04-13T22:08:46.965Z,74.58
2019-04-13T22:11:16.963Z,74.25
2019-04-13T22:13:46.799Z,74.38
2019-04-13T22:16:16.809Z,74.38
2019-04-13T22:18:45.939Z,74.13
2019-04-13T22:21:15.520Z,74.53
2019-04-13T22:23:45.397Z,74.57
2019-04-13T22:26:15.396Z,75.00
2019-04-13T22:28:52.445Z,75.32
2019-04-13T22:31:39.511Z,75.28
2019-04-13T22:34:11.803Z,75.36
2019-04-13T22:36:42.015Z,75.21
2019-04-13T22:39:11.783Z,75.68
2019-04-13T22:41:41.488Z,75.92
2019-04-13T22:44:10.266Z,75.52
2019-04-13T22:46:39.246Z,75.41
2019-04-13T22:49:32.077Z,75.17
2019-04-13T22:52:12.883Z,75.51
2019-04-13T22:55:10.204Z,75.51
2019-04-13T22:57:41.499Z,75.33
2019-04-13T23:00:27.921Z,74.98
2019-04-13T23:02:58.173Z,75.19
2019-04-13T23:05:27.027Z,74.97
2019-04-13T23:07:56.739Z,75.19
2019-04-13T23:10:26.834Z,75.32
2019-04-13T23:12:55.565Z,75.49
2019-04-13T23:15:29.267Z,75.73
2019-04-13T23:17:55.236Z,76.09
2019-04-13T23:20:24.067Z,76.19
2019-04-13T23:22:54.198Z,76.27
2019-04-13T23:25:24.368Z,76.75
2019-04-13T23:27:53.392Z,76.95
2019-04-13T23:30:22.641Z,77.12
2019-04-13T23:32:51.688Z,76.93
2019-04-13T23:35:21.343Z,77.09
2019-04-13T23:37:52.009Z,76.98
2019-04-13T23:40:20.724Z,77.18
2019-04-13T23:42:50.471Z,76.67
2019-04-13T23:45:30.180Z,76.79
2019-04-13T23:47:56.422Z,76.86
2019-04-13T23:50:26.276Z,76.49
2019-04-13T23:52:56.516Z,76.57
2019-04-13T23:55:31.447Z,76.68
2019-04-13T23:58:19.287Z,76.27
